createdAt,value
2023-01-31T00:04:49.208Z,14.40
2023-01-31T00:09:51.150Z,21.60
2023-01-31T00:14:53.221Z,20.57
2023-01-31T00:19:55.335Z,15.97
2023-01-31T00:24:57.275Z,12.10
2023-01-31T00:29:59.283Z,15.33
2023-01-31T00:35:01.345Z,15.97
2023-01-31T00:40:04.365Z,17.73
2023-01-31T00:45:07.197Z,14.43
2023-01-31T00:50:13.994Z,22.63
2023-01-31T00:55:15.814Z,18.40
2023-01-31T01:00:18.236Z,16.37
2023-01-31T01:05:21.080Z,17.27
2023-01-31T01:10:23.322Z,21.97
2023-01-31T01:15:25.137Z,18.33
2023-01-31T01:20:27.139Z,14.10
2023-01-31T01:25:29.117Z,16.10
2023-01-31T01:30:34.929Z,20.07
2023-01-31T01:35:36.932Z,19.03
2023-01-31T01:40:39.037Z,15.60
2023-01-31T01:45:41.547Z,24.23
2023-01-31T01:50:49.463Z,19.73
2023-01-31T01:55:57.966Z,14.37
2023-01-31T02:01:06.636Z,21.07
2023-01-31T02:06:09.043Z,16.97
2023-01-31T02:11:24.326Z,18.83
2023-01-31T02:16:26.818Z,17.07
2023-01-31T02:21:59.750Z,21.30
2023-01-31T02:27:13.976Z,26.10
2023-01-31T02:32:17.575Z,20.73
2023-01-31T02:37:49.145Z,22.50
2023-01-31T02:43:07.197Z,17.97
2023-01-31T02:48:51.349Z,14.87
2023-01-31T02:54:07.971Z,15.73
2023-01-31T02:59:22.150Z,16.57
2023-01-31T03:04:31.416Z,17.27
2023-01-31T03:09:39.140Z,11.67
2023-01-31T03:15:01.419Z,11.97
2023-01-31T03:20:13.000Z,18.10
2023-01-31T03:25:18.776Z,21.67
2023-01-31T03:30:34.784Z,20.23
2023-01-31T03:35:41.078Z,15.37
2023-01-31T03:40:53.593Z,13.30
2023-01-31T03:46:06.417Z,21.13
2023-01-31T03:51:15.141Z,14.13
2023-01-31T03:56:31.260Z,16.60
2023-01-31T04:01:35.948Z,19.17
2023-01-31T04:06:39.237Z,19.03
2023-01-31T04:11:48.480Z,14.37
2023-01-31T04:16:50.480Z,17.03
2023-01-31T04:21:52.638Z,14.40
2023-01-31T04:26:54.443Z,17.47
2023-01-31T04:31:56.497Z,17.43
2023-01-31T04:36:58.558Z,18.07
2023-01-31T04:42:00.665Z,13.73
2023-01-31T04:47:02.631Z,13.93
2023-01-31T04:52:04.623Z,18.73
2023-01-31T04:57:06.730Z,19.53
2023-01-31T05:02:08.762Z,14.57
2023-01-31T05:07:10.642Z,10.37
2023-01-31T05:12:12.575Z,13.30
2023-01-31T05:17:14.579Z,15.33
2023-01-31T05:22:16.608Z,11.97
2023-01-31T05:27:19.477Z,15.97
2023-01-31T05:32:21.530Z,12.30
2023-01-31T05:37:23.488Z,11.87
2023-01-31T05:42:25.406Z,19.77
2023-01-31T05:47:27.337Z,14.07
2023-01-31T05:52:29.526Z,15.87
2023-01-31T05:57:31.473Z,17.33
2023-01-31T06:02:33.572Z,12.80
2023-01-31T06:07:35.574Z,14.37
2023-01-31T06:12:37.956Z,14.77
2023-01-31T06:17:39.991Z,8.90
2023-01-31T06:22:41.892Z,10.40
2023-01-31T06:27:44.196Z,10.50
2023-01-31T06:32:46.020Z,12.23
2023-01-31T06:37:47.834Z,16.33
2023-01-31T06:42:49.790Z,15.23
2023-01-31T06:47:51.867Z,18.93
2023-01-31T06:52:54.417Z,17.33
2023-01-31T06:57:56.442Z,13.53
2023-01-31T07:02:58.799Z,11.50
2023-01-31T07:08:00.824Z,12.07
2023-01-31T07:13:02.921Z,14.03
2023-01-31T07:18:06.229Z,13.57
2023-01-31T07:23:09.090Z,10.57
2023-01-31T07:28:11.808Z,11.20
2023-01-31T07:33:13.696Z,14.97
2023-01-31T07:38:15.525Z,15.43
2023-01-31T07:43:18.001Z,11.53
2023-01-31T07:48:23.444Z,13.70
2023-01-31T07:53:28.469Z,19.37
2023-01-31T07:58:30.795Z,17.47
2023-01-31T08:03:33.674Z,16.27
2023-01-31T08:08:39.850Z,13.60
2023-01-31T08:13:41.920Z,14.30
2023-01-31T08:18:43.817Z,15.03
2023-01-31T08:23:46.182Z,11.37
2023-01-31T08:28:50.404Z,14.43
2023-01-31T08:33:53.464Z,19.73
2023-01-31T08:38:56.052Z,14.17
2023-01-31T08:43:59.763Z,15.47
2023-01-31T08:49:03.405Z,12.67
2023-01-31T08:54:05.404Z,15.60
2023-01-31T08:59:07.286Z,14.87
2023-01-31T09:04:09.261Z,10.87
2023-01-31T09:09:11.797Z,14.33
2023-01-31T09:14:13.799Z,16.37
2023-01-31T09:19:15.577Z,12.03
2023-01-31T09:24:17.630Z,15.60
2023-01-31T09:29:19.765Z,14.93
2023-01-31T09:34:22.230Z,15.40
2023-01-31T09:39:25.201Z,22.87
2023-01-31T09:44:41.317Z,18.10
2023-01-31T09:49:51.599Z,11.27
2023-01-31T09:54:54.071Z,15.73
2023-01-31T10:00:16.356Z,20.07
2023-01-31T10:05:30.839Z,16.73
2023-01-31T10:10:32.753Z,15.03
2023-01-31T10:15:59.199Z,17.50
2023-01-31T10:21:06.832Z,13.47
2023-01-31T10:26:30.495Z,14.80
2023-01-31T10:31:44.995Z,13.00
2023-01-31T10:36:55.305Z,13.03
2023-01-31T10:42:15.904Z,13.63
2023-01-31T10:47:19.933Z,14.37
2023-01-31T10:52:43.931Z,11.63
2023-01-31T10:57:45.903Z,13.83
2023-01-31T11:02:48.189Z,13.43
2023-01-31T11:07:50.843Z,7.57
2023-01-31T11:12:57.270Z,15.53
2023-01-31T11:18:01.096Z,13.77
2023-01-31T11:23:06.840Z,16.90
2023-01-31T11:28:23.875Z,16.63
2023-01-31T11:34:02.058Z,9.37
2023-01-31T11:39:32.086Z,11.33
2023-01-31T11:44:33.960Z,11.40
2023-01-31T11:49:41.318Z,15.63
2023-01-31T11:54:54.416Z,19.33
2023-01-31T11:59:58.861Z,11.77
2023-01-31T12:05:02.414Z,10.97
2023-01-31T12:10:26.161Z,11.83
2023-01-31T12:15:29.922Z,14.03
2023-01-31T12:20:34.953Z,10.97
2023-01-31T12:25:42.985Z,12.37
2023-01-31T12:31:09.766Z,7.20
2023-01-31T12:36:17.873Z,9.30
2023-01-31T12:41:32.644Z,15.47
2023-01-31T12:46:57.741Z,11.23
2023-01-31T12:52:15.677Z,8.77
2023-01-31T12:57:40.972Z,12.47
2023-01-31T13:03:01.698Z,12.80
2023-01-31T13:08:17.913Z,12.67
2023-01-31T13:13:28.120Z,19.00
2023-01-31T13:18:34.793Z,16.20
2023-01-31T13:23:48.550Z,18.87
2023-01-31T13:29:05.229Z,14.53
2023-01-31T13:34:18.433Z,13.33
2023-01-31T13:39:24.564Z,17.80
2023-01-31T13:44:26.605Z,14.73
2023-01-31T13:49:36.358Z,12.00
2023-01-31T13:54:41.998Z,12.03
2023-01-31T13:59:56.384Z,15.07
2023-01-31T14:05:42.431Z,8.60
2023-01-31T14:10:44.373Z,11.97
2023-01-31T14:15:50.027Z,13.70
2023-01-31T14:20:51.847Z,7.47
2023-01-31T14:25:53.717Z,6.40
2023-01-31T14:30:56.023Z,9.67
2023-01-31T14:36:13.544Z,12.33
2023-01-31T14:41:51.361Z,8.47
2023-01-31T14:47:08.161Z,8.80
2023-01-31T14:52:36.353Z,9.10
2023-01-31T14:57:43.501Z,7.73
2023-01-31T15:03:20.314Z,10.50
2023-01-31T15:08:22.089Z,8.30
2023-01-31T15:13:45.345Z,8.53
2023-01-31T15:19:09.176Z,7.23
2023-01-31T15:24:35.976Z,12.13
2023-01-31T15:30:06.926Z,6.07
2023-01-31T15:35:24.152Z,7.70
2023-01-31T15:40:28.872Z,8.63
2023-01-31T15:45:31.021Z,6.73
2023-01-31T15:50:34.062Z,11.00
2023-01-31T15:55:36.758Z,3.97
2023-01-31T16:00:39.147Z,9.73
2023-01-31T16:05:41.793Z,7.10
2023-01-31T16:10:45.808Z,9.07
2023-01-31T16:15:48.561Z,5.93
2023-01-31T16:20:52.722Z,9.47
2023-01-31T16:26:15.758Z,6.37
2023-01-31T16:31:21.440Z,7.43
2023-01-31T16:36:27.562Z,7.27
2023-01-31T16:41:58.337Z,8.90
2023-01-31T16:47:00.268Z,8.63
2023-01-31T16:52:23.587Z,5.40
2023-01-31T16:57:37.405Z,6.90
2023-01-31T17:02:41.416Z,10.90
2023-01-31T17:07:44.898Z,10.57
2023-01-31T17:12:46.755Z,4.90
2023-01-31T17:17:48.711Z,9.17
2023-01-31T17:23:00.921Z,9.17
2023-01-31T17:28:05.555Z,8.87
2023-01-31T17:33:12.282Z,5.17
2023-01-31T17:38:14.049Z,7.13
2023-01-31T17:43:21.131Z,5.83
2023-01-31T17:48:26.672Z,8.07
2023-01-31T17:53:34.481Z,10.50
2023-01-31T17:58:39.365Z,4.10
2023-01-31T18:03:42.244Z,6.07
2023-01-31T18:08:48.616Z,7.77
2023-01-31T18:13:52.760Z,6.43
2023-01-31T18:18:55.395Z,9.67
2023-01-31T18:23:58.836Z,9.50
2023-01-31T18:29:00.825Z,8.80
2023-01-31T18:34:02.947Z,8.97
2023-01-31T18:39:05.001Z,8.03
2023-01-31T18:44:06.972Z,8.63
2023-01-31T18:49:08.903Z,7.57
2023-01-31T18:54:10.911Z,12.37
2023-01-31T18:59:13.030Z,10.50
2023-01-31T19:04:14.881Z,12.50
2023-01-31T19:09:17.637Z,10.40
2023-01-31T19:14:20.098Z,9.47
2023-01-31T19:19:22.086Z,11.57
2023-01-31T19:24:23.961Z,10.67
2023-01-31T19:29:28.022Z,12.57
2023-01-31T19:34:30.004Z,12.07
2023-01-31T19:39:32.020Z,15.40
2023-01-31T19:44:36.102Z,9.57
2023-01-31T19:49:38.046Z,10.00
2023-01-31T19:54:41.307Z,16.00
2023-01-31T19:59:44.141Z,13.67
2023-01-31T20:04:46.082Z,17.00
2023-01-31T20:09:48.028Z,13.60
2023-01-31T20:14:49.997Z,12.90
2023-01-31T20:19:51.841Z,17.63
2023-01-31T20:24:54.825Z,13.40
2023-01-31T20:29:56.630Z,12.70
2023-01-31T20:35:00.161Z,12.63
2023-01-31T20:40:04.224Z,16.83
2023-01-31T20:45:06.812Z,15.07
2023-01-31T20:50:09.582Z,11.03
2023-01-31T20:55:11.566Z,15.53
2023-01-31T21:00:13.700Z,13.70
2023-01-31T21:05:21.905Z,16.20
2023-01-31T21:10:24.039Z,12.00
2023-01-31T21:15:27.268Z,16.93
2023-01-31T21:20:30.532Z,18.97
2023-01-31T21:25:32.636Z,18.40
2023-01-31T21:30:34.504Z,15.10
2023-01-31T21:35:37.500Z,16.60
2023-01-31T21:40:40.687Z,14.43
2023-01-31T21:45:42.768Z,15.80
2023-01-31T21:50:44.532Z,21.03
2023-01-31T21:55:46.550Z,12.87
2023-01-31T22:00:48.550Z,15.30
2023-01-31T22:05:50.554Z,13.47
2023-01-31T22:11:02.132Z,19.80
2023-01-31T22:16:09.670Z,14.20
2023-01-31T22:21:14.672Z,16.73
2023-01-31T22:26:25.083Z,20.40
2023-01-31T22:31:28.246Z,17.13
2023-01-31T22:36:30.431Z,17.40
2023-01-31T22:41:32.255Z,19.80
2023-01-31T22:46:34.239Z,23.53
2023-01-31T22:51:36.052Z,17.43
2023-01-31T22:56:38.137Z,15.10
2023-01-31T23:01:40.216Z,21.23
2023-01-31T23:06:42.189Z,22.27
2023-01-31T23:11:44.044Z,21.60
2023-01-31T23:17:04.449Z,16.30
2023-01-31T23:22:06.316Z,18.70
2023-01-31T23:27:08.297Z,24.33
2023-01-31T23:32:10.313Z,17.03
2023-01-31T23:37:12.139Z,14.87
2023-01-31T23:42:14.017Z,19.40
2023-01-31T23:47:16.050Z,13.70
2023-01-31T23:52:17.829Z,21.33
2023-01-31T23:57:19.626Z,12.07
